createdAt,value
2022-12-31T00:00:34.791Z,101447.81
2022-12-31T00:03:03.187Z,101460.31
2022-12-31T00:05:32.062Z,101447.97
2022-12-31T00:07:59.219Z,101470.25
2022-12-31T00:10:26.522Z,101463.09
2022-12-31T00:12:54.028Z,101461.91
2022-12-31T00:15:21.539Z,101459.03
2022-12-31T00:17:48.881Z,101460.47
2022-12-31T00:20:16.710Z,101465.09
2022-12-31T00:22:43.914Z,101453.16
2022-12-31T00:25:11.102Z,101454.91
2022-12-31T00:27:38.775Z,101451.06
2022-12-31T00:30:06.439Z,101445.25
2022-12-31T00:32:33.798Z,101450.00
2022-12-31T00:35:01.043Z,101447.13
2022-12-31T00:37:30.193Z,101438.81
2022-12-31T00:39:57.340Z,101424.22
2022-12-31T00:42:24.569Z,101432.09
2022-12-31T00:44:51.718Z,101447.94
2022-12-31T00:47:19.015Z,101430.66
2022-12-31T00:49:48.008Z,101429.34
2022-12-31T00:52:17.004Z,101429.53
2022-12-31T00:54:44.657Z,101445.34
2022-12-31T00:57:12.294Z,101443.66
2022-12-31T00:59:39.756Z,101441.28
2022-12-31T01:02:07.049Z,101435.16
2022-12-31T01:04:34.749Z,101434.56
2022-12-31T01:07:02.218Z,101417.69
2022-12-31T01:09:29.470Z,101412.72
2022-12-31T01:11:56.953Z,101423.78
2022-12-31T01:14:24.213Z,101409.78
2022-12-31T01:16:53.555Z,101417.56
2022-12-31T01:19:26.350Z,101426.97
2022-12-31T01:21:54.596Z,101411.16
2022-12-31T01:24:22.382Z,101416.09
2022-12-31T01:26:51.080Z,101419.72
2022-12-31T01:29:19.871Z,101421.00
2022-12-31T01:31:47.195Z,101422.69
2022-12-31T01:34:14.933Z,101416.94
2022-12-31T01:36:42.199Z,101409.78
2022-12-31T01:39:11.115Z,101407.06
2022-12-31T01:41:41.753Z,101409.00
2022-12-31T01:44:11.933Z,101416.84
2022-12-31T01:46:39.399Z,101424.09
2022-12-31T01:49:22.888Z,101409.97
2022-12-31T01:52:17.571Z,101407.78
2022-12-31T01:54:49.849Z,101432.88
2022-12-31T01:57:20.668Z,101404.69
2022-12-31T01:59:48.037Z,101412.22
2022-12-31T02:02:16.538Z,101416.13
2022-12-31T02:04:44.069Z,101425.34
2022-12-31T02:07:12.711Z,101420.88
2022-12-31T02:09:42.363Z,101421.13
2022-12-31T02:12:10.702Z,101420.03
2022-12-31T02:14:48.297Z,101424.47
2022-12-31T02:17:40.257Z,101427.00
2022-12-31T02:20:52.462Z,101431.19
2022-12-31T02:24:14.052Z,101432.59
2022-12-31T02:26:55.171Z,101417.81
2022-12-31T02:29:53.428Z,101416.16
2022-12-31T02:32:28.481Z,101400.75
2022-12-31T02:35:05.893Z,101408.59
2022-12-31T02:37:34.017Z,101408.03
2022-12-31T02:40:01.552Z,101406.09
2022-12-31T02:42:30.447Z,101396.59
2022-12-31T02:44:57.599Z,101402.16
2022-12-31T02:48:19.337Z,101406.00
2022-12-31T02:51:08.223Z,101392.44
2022-12-31T02:53:58.815Z,101393.25
2022-12-31T02:56:25.922Z,101387.97
2022-12-31T02:59:28.441Z,101359.25
2022-12-31T03:02:14.336Z,101373.50
2022-12-31T03:05:02.507Z,101365.44
2022-12-31T03:07:33.035Z,101380.22
2022-12-31T03:10:01.602Z,101381.91
2022-12-31T03:12:48.841Z,101384.41
2022-12-31T03:15:26.642Z,101392.81
2022-12-31T03:18:03.222Z,101384.13
2022-12-31T03:21:02.475Z,101392.50
2022-12-31T03:23:42.338Z,101396.63
2022-12-31T03:26:11.586Z,101400.72
2022-12-31T03:28:41.432Z,101376.03
2022-12-31T03:31:09.250Z,101395.31
2022-12-31T03:33:38.708Z,101385.91
2022-12-31T03:36:09.116Z,101394.31
2022-12-31T03:38:36.475Z,101404.13
2022-12-31T03:41:04.351Z,101396.59
2022-12-31T03:43:31.912Z,101405.25
2022-12-31T03:46:01.767Z,101414.69
2022-12-31T03:48:29.499Z,101400.47
2022-12-31T03:50:56.746Z,101404.06
2022-12-31T03:53:25.628Z,101410.53
2022-12-31T03:55:53.746Z,101394.09
2022-12-31T03:58:22.017Z,101412.78
2022-12-31T04:00:51.193Z,101422.28
2022-12-31T04:03:18.680Z,101409.44
2022-12-31T04:05:52.955Z,101405.25
2022-12-31T04:08:20.099Z,101400.50
2022-12-31T04:10:47.992Z,101410.00
2022-12-31T04:13:15.120Z,101408.88
2022-12-31T04:15:42.470Z,101421.44
2022-12-31T04:18:09.868Z,101391.88
2022-12-31T04:20:37.118Z,101399.09
2022-12-31T04:23:05.929Z,101409.13
2022-12-31T04:25:33.735Z,101404.38
2022-12-31T04:28:00.965Z,101400.97
2022-12-31T04:30:29.333Z,101392.06
2022-12-31T04:32:56.676Z,101413.28
2022-12-31T04:35:24.087Z,101409.97
2022-12-31T04:37:51.401Z,101406.09
2022-12-31T04:40:19.708Z,101408.59
2022-12-31T04:42:47.202Z,101402.75
2022-12-31T04:45:15.084Z,101395.50
2022-12-31T04:47:43.099Z,101394.91
2022-12-31T04:50:10.888Z,101391.03
2022-12-31T04:52:42.702Z,101389.06
2022-12-31T04:55:12.100Z,101382.59
2022-12-31T04:57:41.696Z,101395.47
2022-12-31T05:00:09.409Z,101384.03
2022-12-31T05:02:39.323Z,101387.09
2022-12-31T05:05:07.230Z,101370.88
2022-12-31T05:07:36.001Z,101358.09
2022-12-31T05:10:04.008Z,101344.72
2022-12-31T05:12:31.463Z,101365.91
2022-12-31T05:14:58.975Z,101366.16
2022-12-31T05:17:27.184Z,101375.03
2022-12-31T05:19:54.549Z,101398.19
2022-12-31T05:22:30.783Z,101398.38
2022-12-31T05:24:59.315Z,101380.63
2022-12-31T05:27:28.010Z,101399.94
2022-12-31T05:29:55.249Z,101398.81
2022-12-31T05:32:24.791Z,101387.38
2022-12-31T05:34:53.797Z,101418.06
2022-12-31T05:37:21.025Z,101405.25
2022-12-31T05:39:48.731Z,101427.56
2022-12-31T05:42:16.041Z,101430.66
2022-12-31T05:44:43.197Z,101413.34
2022-12-31T05:47:10.589Z,101437.91
2022-12-31T05:49:37.851Z,101423.09
2022-12-31T05:52:05.037Z,101414.38
2022-12-31T05:54:32.306Z,101427.44
2022-12-31T05:56:59.968Z,101441.63
2022-12-31T05:59:27.094Z,101429.59
2022-12-31T06:01:54.510Z,101423.97
2022-12-31T06:04:21.765Z,101424.84
2022-12-31T06:06:49.341Z,101422.88
2022-12-31T06:09:18.418Z,101424.22
2022-12-31T06:11:47.031Z,101424.75
2022-12-31T06:14:14.830Z,101434.50
2022-12-31T06:16:42.467Z,101425.25
2022-12-31T06:19:10.265Z,101408.88
2022-12-31T06:21:37.680Z,101437.56
2022-12-31T06:24:05.507Z,101440.47
2022-12-31T06:26:32.964Z,101448.88
2022-12-31T06:29:00.280Z,101451.38
2022-12-31T06:31:27.796Z,101444.09
2022-12-31T06:33:55.304Z,101430.50
2022-12-31T06:36:22.680Z,101456.09
2022-12-31T06:38:50.601Z,101456.78
2022-12-31T06:41:19.069Z,101459.28
2022-12-31T06:43:46.672Z,101433.94
2022-12-31T06:46:17.738Z,101449.81
2022-12-31T06:48:45.289Z,101450.28
2022-12-31T06:51:17.427Z,101462.59
2022-12-31T06:53:46.976Z,101457.84
2022-12-31T06:56:15.728Z,101428.78
2022-12-31T06:58:43.725Z,101473.81
2022-12-31T07:01:48.508Z,101468.78
2022-12-31T07:04:52.784Z,101480.78
2022-12-31T07:07:46.521Z,101467.69
2022-12-31T07:10:39.393Z,101475.44
2022-12-31T07:13:45.371Z,101479.34
2022-12-31T07:16:18.661Z,101463.97
2022-12-31T07:18:51.577Z,101472.38
2022-12-31T07:21:28.243Z,101457.81
2022-12-31T07:23:55.948Z,101457.44
2022-12-31T07:26:26.032Z,101463.22
2022-12-31T07:29:29.215Z,101476.41
2022-12-31T07:32:14.943Z,101487.66
2022-12-31T07:35:05.159Z,101470.34
2022-12-31T07:37:54.128Z,101490.16
2022-12-31T07:40:27.532Z,101490.19
2022-12-31T07:43:03.268Z,101461.19
2022-12-31T07:45:51.496Z,101471.19
2022-12-31T07:48:27.758Z,101461.16
2022-12-31T07:50:56.798Z,101456.91
2022-12-31T07:53:26.119Z,101447.38
2022-12-31T07:56:00.147Z,101445.91
2022-12-31T07:58:27.359Z,101447.59
2022-12-31T08:00:58.164Z,101445.97
2022-12-31T08:03:31.605Z,101448.25
2022-12-31T08:06:19.520Z,101446.56
2022-12-31T08:09:12.869Z,101443.78
2022-12-31T08:11:54.229Z,101430.06
2022-12-31T08:14:22.348Z,101446.09
2022-12-31T08:16:50.329Z,101452.31
2022-12-31T08:19:28.886Z,101446.22
2022-12-31T08:22:14.565Z,101443.16
2022-12-31T08:24:52.908Z,101446.22
2022-12-31T08:27:38.587Z,101436.72
2022-12-31T08:30:10.928Z,101427.50
2022-12-31T08:33:16.003Z,101429.75
2022-12-31T08:35:52.985Z,101411.56
2022-12-31T08:38:43.662Z,101395.38
2022-12-31T08:41:29.941Z,101410.94
2022-12-31T08:44:20.435Z,101402.78
2022-12-31T08:47:00.165Z,101371.31
2022-12-31T08:49:28.834Z,101389.59
2022-12-31T08:51:57.106Z,101395.59
2022-12-31T08:54:24.781Z,101414.38
2022-12-31T08:57:10.970Z,101420.19
2022-12-31T09:00:12.058Z,101399.31
2022-12-31T09:02:51.298Z,101452.81
2022-12-31T09:05:25.836Z,101450.91
2022-12-31T09:08:22.980Z,101458.19
2022-12-31T09:11:22.616Z,101459.34
2022-12-31T09:14:06.577Z,101462.47
2022-12-31T09:16:57.227Z,101473.88
2022-12-31T09:19:24.572Z,101463.50
2022-12-31T09:21:52.092Z,101444.09
2022-12-31T09:24:19.772Z,101458.50
2022-12-31T09:27:31.126Z,101491.38
2022-12-31T09:30:11.720Z,101489.66
2022-12-31T09:33:12.932Z,101484.97
2022-12-31T09:35:56.166Z,101475.56
2022-12-31T09:38:44.309Z,101466.84
2022-12-31T09:41:36.375Z,101475.91
2022-12-31T09:44:19.110Z,101486.34
2022-12-31T09:47:04.337Z,101477.78
2022-12-31T09:49:34.663Z,101461.31
2022-12-31T09:52:25.947Z,101466.47
2022-12-31T09:54:59.418Z,101467.84
2022-12-31T09:58:15.608Z,101475.03
2022-12-31T10:01:07.779Z,101474.25
2022-12-31T10:03:53.699Z,101460.47
2022-12-31T10:06:29.276Z,101462.72
2022-12-31T10:09:06.052Z,101470.66
2022-12-31T10:11:51.689Z,101459.00
2022-12-31T10:14:47.426Z,101449.94
2022-12-31T10:17:30.156Z,101460.16
2022-12-31T10:20:28.218Z,101457.72
2022-12-31T10:22:55.722Z,101458.69
2022-12-31T10:25:50.194Z,101456.22
2022-12-31T10:28:49.266Z,101433.25
2022-12-31T10:31:40.501Z,101442.91
2022-12-31T10:34:22.730Z,101433.19
2022-12-31T10:37:11.276Z,101434.41
2022-12-31T10:39:51.855Z,101416.09
2022-12-31T10:42:25.196Z,101424.75
2022-12-31T10:45:29.998Z,101430.97
2022-12-31T10:47:59.926Z,101420.34
2022-12-31T10:51:05.620Z,101427.34
2022-12-31T10:53:35.605Z,101429.75
2022-12-31T10:56:54.266Z,101433.59
2022-12-31T10:59:24.226Z,101423.34
2022-12-31T11:02:07.017Z,101419.31
2022-12-31T11:05:03.593Z,101413.22
2022-12-31T11:07:56.770Z,101414.34
2022-12-31T11:10:50.301Z,101416.66
2022-12-31T11:13:42.499Z,101415.25
2022-12-31T11:16:20.534Z,101420.31
2022-12-31T11:19:10.296Z,101433.44
2022-12-31T11:21:56.363Z,101432.59
2022-12-31T11:24:26.627Z,101434.53
2022-12-31T11:27:33.701Z,101436.78
2022-12-31T11:30:06.141Z,101420.59
2022-12-31T11:32:52.287Z,101440.09
2022-12-31T11:35:32.894Z,101441.47
2022-12-31T11:38:23.443Z,101448.47
2022-12-31T11:41:35.291Z,101425.53
2022-12-31T11:44:30.650Z,101427.25
2022-12-31T11:47:19.829Z,101436.19
2022-12-31T11:50:15.490Z,101442.34
2022-12-31T11:52:55.375Z,101452.94
2022-12-31T11:55:41.301Z,101444.59
2022-12-31T11:58:15.948Z,101438.16
2022-12-31T12:00:54.845Z,101431.19
2022-12-31T12:03:23.378Z,101463.25
2022-12-31T12:05:51.639Z,101458.19
2022-12-31T12:08:18.961Z,101450.38
2022-12-31T12:10:51.110Z,101460.38
2022-12-31T12:13:18.310Z,101456.97
2022-12-31T12:15:49.637Z,101455.34
2022-12-31T12:18:44.282Z,101465.97
2022-12-31T12:21:22.422Z,101467.13
2022-12-31T12:24:03.170Z,101461.84
2022-12-31T12:26:41.934Z,101482.25
2022-12-31T12:29:15.531Z,101482.56
2022-12-31T12:31:43.483Z,101490.91
2022-12-31T12:34:29.293Z,101477.25
2022-12-31T12:36:56.904Z,101490.91
2022-12-31T12:39:29.895Z,101506.28
2022-12-31T12:42:15.467Z,101498.22
2022-12-31T12:44:42.977Z,101507.13
2022-12-31T12:47:16.361Z,101499.53
2022-12-31T12:49:49.590Z,101508.22
2022-12-31T12:52:35.898Z,101514.84
2022-12-31T12:55:12.127Z,101516.50
2022-12-31T12:57:46.631Z,101510.34
2022-12-31T13:00:25.676Z,101523.22
2022-12-31T13:03:10.476Z,101520.34
2022-12-31T13:05:58.250Z,101511.66
2022-12-31T13:08:25.567Z,101530.94
2022-12-31T13:11:21.798Z,101526.53
2022-12-31T13:14:13.649Z,101522.97
2022-12-31T13:16:47.662Z,101536.31
2022-12-31T13:19:39.250Z,101546.88
2022-12-31T13:22:34.416Z,101558.34
2022-12-31T13:25:24.846Z,101546.28
2022-12-31T13:27:54.375Z,101540.91
2022-12-31T13:30:31.102Z,101554.81
2022-12-31T13:33:04.373Z,101546.78
2022-12-31T13:35:47.054Z,101549.59
2022-12-31T13:38:23.821Z,101558.25
2022-12-31T13:41:18.213Z,101541.53
2022-12-31T13:43:58.807Z,101555.84
2022-12-31T13:46:29.192Z,101562.31
2022-12-31T13:49:05.179Z,101555.59
2022-12-31T13:51:49.567Z,101570.75
2022-12-31T13:54:29.152Z,101577.44
2022-12-31T13:57:02.147Z,101578.50
2022-12-31T13:59:35.696Z,101586.28
2022-12-31T14:02:27.788Z,101575.56
2022-12-31T14:05:21.055Z,101571.75
2022-12-31T14:07:54.001Z,101580.72
2022-12-31T14:10:45.322Z,101561.63
2022-12-31T14:13:34.852Z,101575.00
2022-12-31T14:16:12.585Z,101582.84
2022-12-31T14:18:47.916Z,101578.78
2022-12-31T14:21:23.361Z,101586.44
2022-12-31T14:24:09.899Z,101593.03
2022-12-31T14:26:45.736Z,101588.94
2022-12-31T14:29:15.742Z,101601.69
2022-12-31T14:32:24.304Z,101603.06
2022-12-31T14:35:06.960Z,101603.75
2022-12-31T14:37:50.719Z,101607.00
2022-12-31T14:40:35.757Z,101601.34
2022-12-31T14:43:35.633Z,101618.63
2022-12-31T14:46:31.158Z,101627.75
2022-12-31T14:49:36.161Z,101623.94
2022-12-31T14:52:19.933Z,101627.28
2022-12-31T14:54:58.570Z,101618.53
2022-12-31T14:57:54.271Z,101629.69
2022-12-31T15:00:35.468Z,101616.03
2022-12-31T15:03:06.814Z,101626.38
2022-12-31T15:05:36.848Z,101622.72
2022-12-31T15:08:22.262Z,101625.94
2022-12-31T15:11:01.438Z,101637.00
2022-12-31T15:13:34.499Z,101642.56
2022-12-31T15:16:07.754Z,101658.53
2022-12-31T15:18:54.036Z,101655.22
2022-12-31T15:22:00.217Z,101659.09
2022-12-31T15:24:31.272Z,101664.88
2022-12-31T15:27:01.987Z,101680.13
2022-12-31T15:29:36.676Z,101664.19
2022-12-31T15:32:08.089Z,101679.31
2022-12-31T15:34:37.211Z,101674.13
2022-12-31T15:37:25.935Z,101683.16
2022-12-31T15:40:25.323Z,101703.47
2022-12-31T15:42:59.083Z,101696.00
2022-12-31T15:45:41.354Z,101702.41
2022-12-31T15:48:24.055Z,101717.47
2022-12-31T15:50:54.822Z,101714.72
2022-12-31T15:53:32.516Z,101725.81
2022-12-31T15:56:02.212Z,101720.25
2022-12-31T15:58:38.180Z,101701.38
2022-12-31T16:01:24.212Z,101690.31
2022-12-31T16:04:06.208Z,101722.13
2022-12-31T16:06:37.226Z,101724.28
2022-12-31T16:09:09.725Z,101721.75
2022-12-31T16:11:42.092Z,101719.91
2022-12-31T16:14:20.164Z,101724.28
2022-12-31T16:16:58.038Z,101740.78
2022-12-31T16:19:31.723Z,101741.47
2022-12-31T16:22:03.784Z,101746.44
2022-12-31T16:24:33.782Z,101745.25
2022-12-31T16:27:07.621Z,101748.78
2022-12-31T16:29:37.545Z,101737.69
2022-12-31T16:32:05.024Z,101730.53
2022-12-31T16:34:38.595Z,101739.72
2022-12-31T16:37:17.507Z,101726.66
2022-12-31T16:39:56.897Z,101750.88
2022-12-31T16:42:27.039Z,101730.63
2022-12-31T16:44:56.995Z,101752.44
2022-12-31T16:47:36.667Z,101756.19
2022-12-31T16:50:13.926Z,101757.19
2022-12-31T16:52:44.686Z,101744.13
2022-12-31T16:55:23.753Z,101747.41
2022-12-31T16:57:58.924Z,101746.22
2022-12-31T17:00:26.999Z,101730.34
2022-12-31T17:02:57.217Z,101751.53
2022-12-31T17:05:26.516Z,101723.06
2022-12-31T17:07:54.586Z,101732.94
2022-12-31T17:10:26.980Z,101754.59
2022-12-31T17:13:28.234Z,101749.50
2022-12-31T17:15:52.516Z,101762.28
2022-12-31T17:18:24.333Z,101764.22
2022-12-31T17:20:53.644Z,101768.31
2022-12-31T17:23:33.977Z,101768.91
2022-12-31T17:26:08.474Z,101749.22
2022-12-31T17:29:03.374Z,101777.56
2022-12-31T17:31:36.923Z,101770.75
2022-12-31T17:34:13.530Z,101769.94
2022-12-31T17:36:58.785Z,101754.44
2022-12-31T17:39:28.057Z,101782.19
2022-12-31T17:41:57.946Z,101788.25
2022-12-31T17:44:29.143Z,101772.56
2022-12-31T17:46:56.604Z,101780.00
2022-12-31T17:49:30.196Z,101775.19
2022-12-31T17:51:57.713Z,101785.06
2022-12-31T17:54:24.933Z,101788.69
2022-12-31T17:56:53.036Z,101786.06
2022-12-31T17:59:29.799Z,101781.59
2022-12-31T18:02:02.525Z,101781.81
2022-12-31T18:04:29.809Z,101781.44
2022-12-31T18:06:57.133Z,101768.06
2022-12-31T18:09:24.357Z,101787.13
2022-12-31T18:11:54.341Z,101779.66
2022-12-31T18:14:24.218Z,101795.44
2022-12-31T18:16:51.420Z,101794.25
2022-12-31T18:19:45.681Z,101782.44
2022-12-31T18:22:05.877Z,101784.00
2022-12-31T18:24:33.351Z,101803.16
2022-12-31T18:27:00.690Z,101801.69
2022-12-31T18:29:27.811Z,101791.97
2022-12-31T18:31:55.183Z,101784.75
2022-12-31T18:34:22.405Z,101801.00
2022-12-31T18:36:49.534Z,101804.13
2022-12-31T18:39:17.007Z,101790.75
2022-12-31T18:41:49.175Z,101792.81
2022-12-31T18:44:16.592Z,101795.94
2022-12-31T18:46:43.841Z,101806.91
2022-12-31T18:49:11.124Z,101808.97
2022-12-31T18:51:38.437Z,101799.31
2022-12-31T18:54:10.035Z,101817.88
2022-12-31T18:56:41.829Z,101812.78
2022-12-31T18:59:13.736Z,101816.19
2022-12-31T19:01:41.696Z,101826.94
2022-12-31T19:04:24.757Z,101828.13
2022-12-31T19:06:54.821Z,101811.59
2022-12-31T19:09:44.714Z,101838.81
2022-12-31T19:12:14.532Z,101842.47
2022-12-31T19:14:41.781Z,101839.31
2022-12-31T19:19:35.184Z,101840.31
2022-12-31T19:22:03.158Z,101838.88
2022-12-31T19:24:30.539Z,101827.72
2022-12-31T19:26:57.735Z,101820.91
2022-12-31T19:29:28.690Z,101844.63
2022-12-31T19:31:55.996Z,101829.09
2022-12-31T19:34:23.369Z,101847.28
2022-12-31T19:36:50.529Z,101844.97
2022-12-31T19:39:20.408Z,101845.59
2022-12-31T19:41:54.731Z,101821.59
2022-12-31T19:44:26.684Z,101845.47
2022-12-31T19:46:54.444Z,101845.81
2022-12-31T19:49:22.059Z,101833.41
2022-12-31T19:51:49.365Z,101846.16
2022-12-31T19:54:16.708Z,101848.38
2022-12-31T19:56:44.143Z,101844.16
2022-12-31T19:59:11.956Z,101864.25
2022-12-31T20:01:39.557Z,101850.41
2022-12-31T20:04:07.140Z,101833.22
2022-12-31T20:06:35.444Z,101860.31
2022-12-31T20:09:03.617Z,101863.19
2022-12-31T20:11:31.631Z,101851.75
2022-12-31T20:13:58.861Z,101849.06
2022-12-31T20:16:33.983Z,101858.72
2022-12-31T20:19:01.626Z,101849.69
2022-12-31T20:21:29.601Z,101872.59
2022-12-31T20:23:56.922Z,101867.06
2022-12-31T20:26:25.106Z,101875.13
2022-12-31T20:28:53.456Z,101870.44
2022-12-31T20:31:23.694Z,101885.63
2022-12-31T20:33:51.565Z,101881.78
2022-12-31T20:36:18.749Z,101871.28
2022-12-31T20:38:46.270Z,101882.25
2022-12-31T20:41:22.064Z,101879.31
2022-12-31T20:43:50.372Z,101883.19
2022-12-31T20:46:25.056Z,101899.81
2022-12-31T20:48:54.916Z,101886.66
2022-12-31T20:51:22.938Z,101878.56
2022-12-31T20:54:05.010Z,101879.31
2022-12-31T20:56:35.798Z,101869.69
2022-12-31T20:59:04.314Z,101883.16
2022-12-31T21:01:55.095Z,101848.56
2022-12-31T21:04:19.420Z,101869.69
2022-12-31T21:06:48.262Z,101857.63
2022-12-31T21:09:15.496Z,101863.50
2022-12-31T21:12:01.536Z,101855.19
2022-12-31T21:14:29.250Z,101865.69
2022-12-31T21:16:56.554Z,101856.81
2022-12-31T21:19:23.676Z,101869.22
2022-12-31T21:21:51.021Z,101868.22
2022-12-31T21:24:23.605Z,101868.56
2022-12-31T21:26:51.514Z,101799.31
2022-12-31T21:29:18.823Z,101888.09
2022-12-31T21:31:46.158Z,101903.88
2022-12-31T21:34:13.559Z,101877.34
2022-12-31T21:36:40.674Z,101886.75
2022-12-31T21:39:07.764Z,101875.09
2022-12-31T21:41:53.030Z,101889.66
2022-12-31T21:44:24.697Z,101873.22
2022-12-31T21:47:33.368Z,101896.00
2022-12-31T21:49:44.030Z,101896.88
2022-12-31T21:52:27.914Z,101882.91
2022-12-31T21:55:14.953Z,101879.78
2022-12-31T21:58:15.641Z,101885.03
2022-12-31T22:00:49.578Z,101869.34
2022-12-31T22:03:27.964Z,101869.81
2022-12-31T22:06:03.040Z,101875.88
2022-12-31T22:08:31.781Z,101866.34
2022-12-31T22:10:58.976Z,101882.00
2022-12-31T22:13:26.222Z,101855.72
2022-12-31T22:16:00.414Z,101878.66
2022-12-31T22:18:34.141Z,101841.75
2022-12-31T22:21:13.725Z,101868.13
2022-12-31T22:23:46.627Z,101861.72
2022-12-31T22:26:15.993Z,101866.91
2022-12-31T22:28:44.318Z,101857.38
2022-12-31T22:31:24.728Z,101870.97
2022-12-31T22:33:52.597Z,101863.72
2022-12-31T22:36:22.311Z,101842.75
2022-12-31T22:38:51.584Z,101853.72
2022-12-31T22:41:20.868Z,101850.44
2022-12-31T22:43:58.514Z,101857.34
2022-12-31T22:46:30.538Z,101848.41
2022-12-31T22:48:59.368Z,101842.34
2022-12-31T22:51:56.582Z,101855.84
2022-12-31T22:54:15.385Z,101857.19
2022-12-31T22:56:42.914Z,101849.94
2022-12-31T22:59:11.135Z,101842.84
2022-12-31T23:01:38.522Z,101840.44
2022-12-31T23:04:06.005Z,101862.50
2022-12-31T23:06:43.701Z,101851.13
2022-12-31T23:09:31.091Z,101778.44
2022-12-31T23:12:00.812Z,101783.81
2022-12-31T23:14:49.392Z,101853.56
2022-12-31T23:17:38.449Z,101853.66
2022-12-31T23:20:29.905Z,101841.16
2022-12-31T23:23:07.087Z,101838.59
2022-12-31T23:25:39.127Z,101842.75
2022-12-31T23:28:07.558Z,101856.44
2022-12-31T23:30:38.714Z,101855.03
2022-12-31T23:33:07.083Z,101809.53
2022-12-31T23:35:36.845Z,101855.88
2022-12-31T23:38:06.270Z,101849.59
2022-12-31T23:40:36.485Z,101840.19
2022-12-31T23:43:08.249Z,101799.72
2022-12-31T23:45:36.534Z,101854.75
2022-12-31T23:48:04.094Z,101834.09
2022-12-31T23:50:31.430Z,101843.88
2022-12-31T23:52:59.046Z,101855.84
2022-12-31T23:55:26.406Z,101856.53
2022-12-31T23:57:53.898Z,101824.19
